createdAt,value
2018-02-22T00:01:18.777Z,10.40
2018-02-22T00:03:46.238Z,14.50
2018-02-22T00:06:13.020Z,13.25
2018-02-22T00:08:39.775Z,11.13
2018-02-22T00:11:06.519Z,11.77
2018-02-22T00:13:33.338Z,13.77
2018-02-22T00:16:00.129Z,13.35
2018-02-22T00:18:27.879Z,12.85
2018-02-22T00:20:54.638Z,10.53
2018-02-22T00:23:21.415Z,11.60
2018-02-22T00:25:48.891Z,14.68
2018-02-22T00:28:15.659Z,15.10
2018-02-22T00:30:42.432Z,11.83
2018-02-22T00:33:09.201Z,11.23
2018-02-22T00:35:35.981Z,13.17
2018-02-22T00:38:02.761Z,11.97
2018-02-22T00:40:29.536Z,12.50
2018-02-22T00:42:56.333Z,11.82
2018-02-22T00:45:23.122Z,12.63
2018-02-22T00:47:49.903Z,12.23
2018-02-22T00:50:17.330Z,13.00
2018-02-22T00:52:44.114Z,12.00
2018-02-22T00:55:10.876Z,13.10
2018-02-22T00:57:37.647Z,9.27
2018-02-22T01:00:04.422Z,11.80
2018-02-22T01:02:31.241Z,12.13
2018-02-22T01:04:58.022Z,9.95
2018-02-22T01:07:24.763Z,13.40
2018-02-22T01:09:51.571Z,10.00
2018-02-22T01:12:18.347Z,12.37
2018-02-22T01:14:45.147Z,12.27
2018-02-22T01:17:11.913Z,10.55
2018-02-22T01:19:38.662Z,14.70
2018-02-22T01:22:05.490Z,11.88
2018-02-22T01:24:32.994Z,14.57
2018-02-22T01:26:59.812Z,10.65
2018-02-22T01:29:26.625Z,11.60
2018-02-22T01:31:53.412Z,15.07
2018-02-22T01:34:20.194Z,11.27
2018-02-22T01:36:46.946Z,12.52
2018-02-22T01:39:13.730Z,12.90
2018-02-22T01:41:40.521Z,12.15
2018-02-22T01:44:07.317Z,12.37
2018-02-22T01:46:34.074Z,13.80
2018-02-22T01:49:00.853Z,12.57
2018-02-22T01:51:27.640Z,13.95
2018-02-22T01:53:54.377Z,11.37
2018-02-22T01:56:21.116Z,9.67
2018-02-22T01:58:48.628Z,14.37
2018-02-22T02:01:15.400Z,13.23
2018-02-22T02:03:42.209Z,13.23
2018-02-22T02:06:08.970Z,13.10
2018-02-22T02:08:35.735Z,10.77
2018-02-22T02:11:03.042Z,12.50
2018-02-22T02:13:29.827Z,13.38
2018-02-22T02:15:56.606Z,12.10
2018-02-22T02:18:23.404Z,14.70
2018-02-22T02:20:50.158Z,9.40
2018-02-22T02:23:16.934Z,10.57
2018-02-22T02:25:43.713Z,9.85
2018-02-22T02:28:10.527Z,11.35
2018-02-22T02:30:37.341Z,12.57
2018-02-22T02:33:04.106Z,10.93
2018-02-22T02:35:31.490Z,13.25
2018-02-22T02:37:58.255Z,12.37
2018-02-22T02:40:25.093Z,12.68
2018-02-22T02:42:52.602Z,11.27
2018-02-22T02:45:19.371Z,10.45
2018-02-22T02:47:46.161Z,10.40
2018-02-22T02:50:12.930Z,13.07
2018-02-22T02:52:39.759Z,8.93
2018-02-22T02:55:06.559Z,10.27
2018-02-22T02:57:33.311Z,11.60
2018-02-22T03:00:00.078Z,12.93
2018-02-22T03:02:26.841Z,11.95
2018-02-22T03:04:53.662Z,10.40
2018-02-22T03:07:20.422Z,12.13
2018-02-22T03:09:47.214Z,10.73
2018-02-22T03:12:13.987Z,12.30
2018-02-22T03:14:40.750Z,12.10
2018-02-22T03:17:07.534Z,10.70
2018-02-22T03:19:34.917Z,13.50
2018-02-22T03:22:01.687Z,10.15
2018-02-22T03:24:28.479Z,11.40
2018-02-22T03:26:55.235Z,10.10
2018-02-22T03:29:22.053Z,11.90
2018-02-22T03:31:48.814Z,12.27
2018-02-22T03:34:15.561Z,10.40
2018-02-22T03:36:42.323Z,10.05
2018-02-22T03:39:09.102Z,11.88
2018-02-22T03:41:35.891Z,16.30
2018-02-22T03:44:02.690Z,10.55
2018-02-22T03:46:29.446Z,12.13
2018-02-22T03:48:56.210Z,13.40
2018-02-22T03:51:22.974Z,13.98
2018-02-22T03:53:49.767Z,13.27
2018-02-22T03:56:16.518Z,14.37
2018-02-22T03:58:43.270Z,14.97
2018-02-22T04:01:10.048Z,12.10
2018-02-22T04:03:36.830Z,13.50
2018-02-22T04:06:03.618Z,15.40
2018-02-22T04:08:30.381Z,12.67
2018-02-22T04:10:57.144Z,11.27
2018-02-22T04:13:23.934Z,12.63
2018-02-22T04:15:50.739Z,15.73
2018-02-22T04:18:17.540Z,9.13
2018-02-22T04:20:44.378Z,12.18
2018-02-22T04:23:11.161Z,13.02
2018-02-22T04:25:37.910Z,11.97
2018-02-22T04:28:04.727Z,12.45
2018-02-22T04:30:31.566Z,10.80
2018-02-22T04:32:58.377Z,12.98
2018-02-22T04:35:25.153Z,12.17
2018-02-22T04:37:51.925Z,8.18
2018-02-22T04:40:18.671Z,9.97
2018-02-22T04:42:45.459Z,8.57
2018-02-22T04:45:12.227Z,9.87
2018-02-22T04:47:39.022Z,13.00
2018-02-22T04:50:06.295Z,16.73
2018-02-22T04:52:33.082Z,15.25
2018-02-22T04:55:00.249Z,15.07
2018-02-22T04:57:27.009Z,12.83
2018-02-22T04:59:53.779Z,14.27
2018-02-22T05:02:20.551Z,13.90
2018-02-22T05:04:47.304Z,14.47
2018-02-22T05:07:14.125Z,13.80
2018-02-22T05:09:40.893Z,15.63
2018-02-22T05:12:07.671Z,16.30
2018-02-22T05:14:34.474Z,14.60
2018-02-22T05:17:01.235Z,14.93
2018-02-22T05:19:28.058Z,12.50
2018-02-22T05:21:54.845Z,15.98
2018-02-22T05:24:21.606Z,13.93
2018-02-22T05:26:48.540Z,14.10
2018-02-22T05:29:15.666Z,14.20
2018-02-22T05:31:42.486Z,16.10
2018-02-22T05:34:09.320Z,13.95
2018-02-22T05:36:36.649Z,12.60
2018-02-22T05:39:03.443Z,15.73
2018-02-22T05:41:30.234Z,15.38
2018-02-22T05:43:57.043Z,15.57
2018-02-22T05:46:23.791Z,14.60
2018-02-22T05:48:50.558Z,11.13
2018-02-22T05:51:17.357Z,13.45
2018-02-22T05:53:44.122Z,14.77
2018-02-22T05:56:10.938Z,12.50
2018-02-22T05:58:37.691Z,12.00
2018-02-22T06:01:04.463Z,13.93
2018-02-22T06:03:31.255Z,13.77
2018-02-22T06:05:58.023Z,15.17
2018-02-22T06:08:24.930Z,15.05
2018-02-22T06:10:51.726Z,14.60
2018-02-22T06:13:18.466Z,14.50
2018-02-22T06:15:45.273Z,12.90
2018-02-22T06:18:12.077Z,15.15
2018-02-22T06:20:38.882Z,16.07
2018-02-22T06:23:06.428Z,11.37
2018-02-22T06:25:33.221Z,12.75
2018-02-22T06:28:00.009Z,15.90
2018-02-22T06:30:26.776Z,12.50
2018-02-22T06:32:53.592Z,13.50
2018-02-22T06:35:20.394Z,16.77
2018-02-22T06:37:47.201Z,14.90
2018-02-22T06:40:13.974Z,15.93
2018-02-22T06:42:40.769Z,16.33
2018-02-22T06:45:08.629Z,15.57
2018-02-22T06:47:35.438Z,15.93
2018-02-22T06:50:02.227Z,15.43
2018-02-22T06:52:29.106Z,11.47
2018-02-22T06:54:55.839Z,11.17
2018-02-22T06:57:22.647Z,15.20
2018-02-22T06:59:54.450Z,9.93
2018-02-22T07:02:21.291Z,12.18
2018-02-22T07:04:49.321Z,13.83
2018-02-22T07:07:16.072Z,12.93
2018-02-22T07:09:43.027Z,13.00
2018-02-22T07:12:09.845Z,15.73
2018-02-22T07:14:36.605Z,14.73
2018-02-22T07:17:03.406Z,15.00
2018-02-22T07:19:30.182Z,14.57
2018-02-22T07:21:56.989Z,15.43
2018-02-22T07:24:24.236Z,13.17
2018-02-22T07:26:51.007Z,19.40
2018-02-22T07:29:17.789Z,12.03
2018-02-22T07:31:44.550Z,11.70
2018-02-22T07:34:11.374Z,16.33
2018-02-22T07:36:38.334Z,15.73
2018-02-22T07:39:05.750Z,14.87
2018-02-22T07:41:32.521Z,14.70
2018-02-22T07:43:59.298Z,15.27
2018-02-22T07:46:26.116Z,15.97
2018-02-22T07:48:52.881Z,16.30
2018-02-22T07:51:19.771Z,16.10
2018-02-22T07:53:47.289Z,11.77
2018-02-22T07:56:14.103Z,15.43
2018-02-22T07:58:40.909Z,14.37
2018-02-22T08:01:08.003Z,14.37
2018-02-22T08:03:34.790Z,16.00
2018-02-22T08:06:01.559Z,13.17
2018-02-22T08:08:28.329Z,14.13
2018-02-22T08:10:55.115Z,13.87
2018-02-22T08:13:21.911Z,12.77
2018-02-22T08:15:48.673Z,11.30
2018-02-22T08:18:15.457Z,11.27
2018-02-22T08:20:42.211Z,13.83
2018-02-22T08:23:09.058Z,13.10
2018-02-22T08:25:35.832Z,9.70
2018-02-22T08:28:02.574Z,15.53
2018-02-22T08:30:30.099Z,14.57
2018-02-22T08:32:56.875Z,13.70
2018-02-22T08:35:24.262Z,15.40
2018-02-22T08:37:51.058Z,11.90
2018-02-22T08:40:18.412Z,12.07
2018-02-22T08:42:45.161Z,16.03
2018-02-22T08:45:11.919Z,12.90
2018-02-22T08:47:38.762Z,14.67
2018-02-22T08:50:05.540Z,14.20
2018-02-22T08:52:32.301Z,13.80
2018-02-22T08:54:59.039Z,15.93
2018-02-22T08:57:25.833Z,11.60
2018-02-22T08:59:52.622Z,16.17
2018-02-22T09:02:19.362Z,15.23
2018-02-22T09:04:46.138Z,14.10
2018-02-22T09:07:13.584Z,8.97
2018-02-22T09:09:40.968Z,15.30
2018-02-22T09:12:07.782Z,15.00
2018-02-22T09:14:34.554Z,8.53
2018-02-22T09:17:01.294Z,15.90
2018-02-22T09:19:28.066Z,8.83
2018-02-22T09:21:54.857Z,15.63
2018-02-22T09:24:21.666Z,16.10
2018-02-22T09:26:48.440Z,16.97
2018-02-22T09:29:15.461Z,14.67
2018-02-22T09:31:42.216Z,15.87
2018-02-22T09:36:42.058Z,14.10
2018-02-22T09:39:08.819Z,15.37
2018-02-22T09:41:36.204Z,14.37
2018-02-22T09:44:02.962Z,15.90
2018-02-22T09:46:29.794Z,14.43
2018-02-22T09:48:56.578Z,16.77
2018-02-22T09:51:23.349Z,12.43
2018-02-22T09:53:50.485Z,14.80
2018-02-22T09:56:17.255Z,17.03
2018-02-22T09:58:44.027Z,18.67
2018-02-22T10:01:10.841Z,20.40
2018-02-22T10:03:37.608Z,14.27
2018-02-22T10:06:04.390Z,15.20
2018-02-22T10:08:31.148Z,12.83
2018-02-22T10:10:57.927Z,15.70
2018-02-22T10:13:24.719Z,15.77
2018-02-22T10:15:51.484Z,14.87
2018-02-22T10:18:18.251Z,16.30
2018-02-22T10:20:45.007Z,14.97
2018-02-22T10:23:11.754Z,17.43
2018-02-22T10:25:38.689Z,15.03
2018-02-22T10:28:05.471Z,12.30
2018-02-22T10:30:32.241Z,13.93
2018-02-22T10:32:59.821Z,13.60
2018-02-22T10:35:27.258Z,17.30
2018-02-22T10:37:54.042Z,16.60
2018-02-22T10:40:20.807Z,14.50
2018-02-22T10:42:47.582Z,17.87
2018-02-22T10:45:14.376Z,16.57
2018-02-22T10:47:41.130Z,16.47
2018-02-22T10:50:07.915Z,17.87
2018-02-22T10:52:35.651Z,15.30
2018-02-22T10:55:02.404Z,17.20
2018-02-22T10:57:29.168Z,16.37
2018-02-22T10:59:55.983Z,16.43
2018-02-22T11:02:28.416Z,19.57
2018-02-22T11:04:55.234Z,16.70
2018-02-22T11:07:21.988Z,17.03
2018-02-22T11:09:48.754Z,21.03
2018-02-22T11:12:15.513Z,16.77
2018-02-22T11:14:42.282Z,15.50
2018-02-22T11:17:09.097Z,22.83
2018-02-22T11:19:36.188Z,16.47
2018-02-22T11:22:02.930Z,18.10
2018-02-22T11:24:29.711Z,18.67
2018-02-22T11:26:56.492Z,17.73
2018-02-22T11:29:23.295Z,16.43
2018-02-22T11:31:50.096Z,15.33
2018-02-22T11:34:16.833Z,17.23
2018-02-22T11:36:43.579Z,20.93
2018-02-22T11:39:10.931Z,19.87
2018-02-22T11:41:37.757Z,16.50
2018-02-22T11:44:04.590Z,18.63
2018-02-22T11:46:31.361Z,15.80
2018-02-22T11:48:58.126Z,17.37
2018-02-22T11:51:24.879Z,19.40
2018-02-22T11:53:51.667Z,16.77
2018-02-22T11:56:18.457Z,20.70
2018-02-22T11:58:45.199Z,18.43
2018-02-22T12:01:11.966Z,16.30
2018-02-22T12:03:38.745Z,18.83
2018-02-22T12:06:05.493Z,19.00
2018-02-22T12:08:32.313Z,20.37
2018-02-22T12:10:59.066Z,16.80
2018-02-22T12:13:25.823Z,16.57
2018-02-22T12:15:52.598Z,19.20
2018-02-22T12:18:19.350Z,18.30
2018-02-22T12:20:46.170Z,14.60
2018-02-22T12:23:12.923Z,15.87
2018-02-22T12:25:39.692Z,12.10
2018-02-22T12:28:06.460Z,17.63
2018-02-22T12:30:33.278Z,17.40
2018-02-22T12:33:00.145Z,16.47
2018-02-22T12:35:26.904Z,15.43
2018-02-22T12:37:53.666Z,17.63
2018-02-22T12:40:20.415Z,17.80
2018-02-22T12:42:47.193Z,18.80
2018-02-22T12:45:13.975Z,17.00
2018-02-22T12:47:40.745Z,16.83
2018-02-22T12:50:07.507Z,16.63
2018-02-22T12:52:35.003Z,17.40
2018-02-22T12:55:01.764Z,18.70
2018-02-22T12:57:28.574Z,17.73
2018-02-22T12:59:55.829Z,17.90
2018-02-22T13:02:22.581Z,17.90
2018-02-22T13:04:49.326Z,15.10
2018-02-22T13:07:16.091Z,16.93
2018-02-22T13:09:42.869Z,16.50
2018-02-22T13:12:09.666Z,15.97
2018-02-22T13:14:36.441Z,16.83
2018-02-22T13:17:03.234Z,15.70
2018-02-22T13:19:29.998Z,19.03
2018-02-22T13:21:56.784Z,14.93
2018-02-22T13:24:23.858Z,15.50
2018-02-22T13:26:50.629Z,14.30
2018-02-22T13:29:17.670Z,15.03
2018-02-22T13:31:44.434Z,12.93
2018-02-22T13:34:31.048Z,11.20
2018-02-22T13:36:57.800Z,12.80
2018-02-22T13:39:24.573Z,14.13
2018-02-22T13:41:51.353Z,14.20
2018-02-22T13:44:23.996Z,12.77
2018-02-22T13:46:50.851Z,17.17
2018-02-22T13:49:23.347Z,16.00
2018-02-22T13:51:50.176Z,14.17
2018-02-22T13:54:16.920Z,16.47
2018-02-22T13:56:49.879Z,14.17
2018-02-22T13:59:16.636Z,14.07
2018-02-22T14:01:49.767Z,15.77
2018-02-22T14:04:16.562Z,13.97
2018-02-22T14:06:43.664Z,13.83
2018-02-22T14:09:10.438Z,14.37
2018-02-22T14:11:37.207Z,12.97
2018-02-22T14:14:03.953Z,16.70
2018-02-22T14:16:30.771Z,13.70
2018-02-22T14:18:57.546Z,13.57
2018-02-22T14:21:24.283Z,13.50
2018-02-22T14:23:51.027Z,15.80
2018-02-22T14:26:17.779Z,11.20
2018-02-22T14:28:44.571Z,11.97
2018-02-22T14:31:11.312Z,12.57
2018-02-22T14:33:38.118Z,13.30
2018-02-22T14:36:04.941Z,12.93
2018-02-22T14:38:32.493Z,12.43
2018-02-22T14:40:59.296Z,12.60
2018-02-22T14:43:26.053Z,13.50
2018-02-22T14:45:52.818Z,12.00
2018-02-22T14:48:19.570Z,12.63
2018-02-22T14:50:46.378Z,10.50
2018-02-22T14:53:13.214Z,10.30
2018-02-22T14:55:40.462Z,9.63
2018-02-22T14:58:07.231Z,13.17
2018-02-22T15:00:33.988Z,11.90
2018-02-22T15:03:00.754Z,9.87
2018-02-22T15:05:27.585Z,10.30
2018-02-22T15:07:54.335Z,8.77
2018-02-22T15:10:21.118Z,9.93
2018-02-22T15:12:47.910Z,10.30
2018-02-22T15:15:14.690Z,9.07
2018-02-22T15:17:41.514Z,9.47
2018-02-22T15:20:08.270Z,9.90
2018-02-22T15:22:35.015Z,9.30
2018-02-22T15:25:01.790Z,7.13
2018-02-22T15:27:28.552Z,10.47
2018-02-22T15:29:55.363Z,10.10
2018-02-22T15:32:22.141Z,10.50
2018-02-22T15:34:48.894Z,11.00
2018-02-22T15:37:15.675Z,10.50
2018-02-22T15:39:42.457Z,8.87
2018-02-22T15:42:09.589Z,9.50
2018-02-22T15:44:36.342Z,9.23
2018-02-22T15:47:03.108Z,8.10
2018-02-22T15:49:29.869Z,10.23
2018-02-22T15:51:56.616Z,10.27
2018-02-22T15:54:23.399Z,9.40
2018-02-22T15:56:50.174Z,9.17
2018-02-22T15:59:16.930Z,7.07
2018-02-22T16:01:43.683Z,7.23
2018-02-22T16:04:10.455Z,7.90
2018-02-22T16:06:37.248Z,7.40
2018-02-22T16:09:04.003Z,9.43
2018-02-22T16:11:30.770Z,8.40
2018-02-22T16:13:57.563Z,7.87
2018-02-22T16:16:24.358Z,8.50
2018-02-22T16:18:51.223Z,9.93
2018-02-22T16:21:18.031Z,11.10
2018-02-22T16:23:44.831Z,7.10
2018-02-22T16:26:11.602Z,10.90
2018-02-22T16:28:38.369Z,7.35
2018-02-22T16:31:05.161Z,9.60
2018-02-22T16:33:31.952Z,8.40
2018-02-22T16:35:58.701Z,8.07
2018-02-22T16:38:26.072Z,8.80
2018-02-22T16:40:52.850Z,7.03
2018-02-22T16:43:20.446Z,7.22
2018-02-22T16:45:47.535Z,9.15
2018-02-22T16:48:14.646Z,7.25
2018-02-22T16:50:41.435Z,8.57
2018-02-22T16:53:08.182Z,4.27
2018-02-22T16:55:35.005Z,3.58
2018-02-22T16:58:01.771Z,4.80
2018-02-22T17:00:28.526Z,3.33
2018-02-22T17:02:55.283Z,6.33
2018-02-22T17:05:22.159Z,4.10
2018-02-22T17:07:48.973Z,4.60
2018-02-22T17:10:16.109Z,5.70
2018-02-22T17:12:42.915Z,4.30
2018-02-22T17:15:09.690Z,4.37
2018-02-22T17:17:42.450Z,4.35
2018-02-22T17:20:09.245Z,3.80
2018-02-22T17:22:35.987Z,4.20
2018-02-22T17:25:02.746Z,4.60
2018-02-22T17:27:35.215Z,4.53
2018-02-22T17:30:07.581Z,3.15
2018-02-22T17:32:34.171Z,5.15
2018-02-22T17:35:00.948Z,4.05
2018-02-22T17:37:29.590Z,3.03
2018-02-22T17:40:02.188Z,3.97
2018-02-22T17:42:28.950Z,5.40
2018-02-22T17:44:55.747Z,4.93
2018-02-22T17:47:22.523Z,5.25
2018-02-22T17:49:49.273Z,4.10
2018-02-22T17:52:16.095Z,2.67
2018-02-22T17:54:42.876Z,5.07
2018-02-22T17:57:09.630Z,3.12
2018-02-22T17:59:36.568Z,3.47
2018-02-22T18:02:03.346Z,3.65
2018-02-22T18:04:30.106Z,3.30
2018-02-22T18:06:56.918Z,4.05
2018-02-22T18:09:23.707Z,3.33
2018-02-22T18:11:50.533Z,3.70
2018-02-22T18:14:17.311Z,3.95
2018-02-22T18:16:44.070Z,3.80
2018-02-22T18:19:10.983Z,4.70
2018-02-22T18:21:37.904Z,4.75
2018-02-22T18:24:04.685Z,4.35
2018-02-22T18:26:31.797Z,3.50
2018-02-22T18:28:58.579Z,4.87
2018-02-22T18:31:35.311Z,3.67
2018-02-22T18:34:02.080Z,3.80
2018-02-22T18:36:28.854Z,5.20
2018-02-22T18:39:01.285Z,4.45
2018-02-22T18:41:28.778Z,2.95
2018-02-22T18:44:01.447Z,3.60
2018-02-22T18:46:28.221Z,3.40
2018-02-22T18:48:55.314Z,3.50
2018-02-22T18:51:22.056Z,4.22
2018-02-22T18:53:48.806Z,3.05
2018-02-22T18:56:15.602Z,2.80
2018-02-22T18:58:42.375Z,2.50
2018-02-22T19:01:09.141Z,2.62
2018-02-22T19:03:35.911Z,2.78
2018-02-22T19:06:02.699Z,2.90
2018-02-22T19:08:29.504Z,3.12
2018-02-22T19:10:56.283Z,3.35
2018-02-22T19:13:23.032Z,2.47
2018-02-22T19:15:49.791Z,3.30
2018-02-22T19:18:16.572Z,4.05
2018-02-22T19:20:43.445Z,2.85
2018-02-22T19:23:10.207Z,2.05
2018-02-22T19:25:36.975Z,1.90
2018-02-22T19:28:03.793Z,2.12
2018-02-22T19:30:30.733Z,2.50
2018-02-22T19:32:57.533Z,3.05
2018-02-22T19:35:24.398Z,2.50
2018-02-22T19:37:51.414Z,1.98
2018-02-22T19:40:18.164Z,3.22
2018-02-22T19:42:44.924Z,2.63
2018-02-22T19:45:11.713Z,3.53
2018-02-22T19:47:38.812Z,2.95
2018-02-22T19:50:05.617Z,4.30
2018-02-22T19:52:32.393Z,4.00
2018-02-22T19:54:59.889Z,2.95
2018-02-22T19:57:26.709Z,3.65
2018-02-22T19:59:53.486Z,2.85
2018-02-22T20:02:20.415Z,3.15
2018-02-22T20:04:47.331Z,3.08
2018-02-22T20:07:14.173Z,3.25
2018-02-22T20:09:40.962Z,1.87
2018-02-22T20:12:08.012Z,4.40
2018-02-22T20:14:35.242Z,3.40
2018-02-22T20:17:02.281Z,2.37
2018-02-22T20:19:29.708Z,3.40
2018-02-22T20:21:56.517Z,3.67
2018-02-22T20:24:24.068Z,4.60
2018-02-22T20:26:50.821Z,2.35
2018-02-22T20:29:17.597Z,3.35
2018-02-22T20:31:44.673Z,4.65
2018-02-22T20:34:11.967Z,4.43
2018-02-22T20:36:39.640Z,3.40
2018-02-22T20:39:06.445Z,2.50
2018-02-22T20:41:33.230Z,3.95
2018-02-22T20:44:00.690Z,3.17
2018-02-22T20:46:27.558Z,3.28
2018-02-22T20:48:54.334Z,4.50
2018-02-22T20:51:36.006Z,3.03
2018-02-22T20:54:03.140Z,3.60
2018-02-22T20:56:29.925Z,2.90
2018-02-22T20:58:56.727Z,2.40
2018-02-22T21:01:23.682Z,2.87
2018-02-22T21:03:50.731Z,3.85
2018-02-22T21:06:17.497Z,4.05
2018-02-22T21:08:44.313Z,3.40
2018-02-22T21:11:11.071Z,1.75
2018-02-22T21:13:37.820Z,3.45
2018-02-22T21:16:04.658Z,3.70
2018-02-22T21:18:31.513Z,3.58
2018-02-22T21:20:58.283Z,2.85
2018-02-22T21:23:25.534Z,2.97
2018-02-22T21:25:52.305Z,2.30
2018-02-22T21:28:19.424Z,3.37
2018-02-22T21:30:46.192Z,3.08
2018-02-22T21:33:12.942Z,3.20
2018-02-22T21:35:39.707Z,3.03
2018-02-22T21:38:06.483Z,2.75
2018-02-22T21:40:33.281Z,2.47
2018-02-22T21:43:00.070Z,3.00
2018-02-22T21:45:27.075Z,4.22
2018-02-22T21:47:53.831Z,1.95
2018-02-22T21:50:20.748Z,2.62
2018-02-22T21:52:47.804Z,3.45
2018-02-22T21:55:14.602Z,2.55
2018-02-22T21:57:41.361Z,3.20
2018-02-22T22:00:08.148Z,2.92
2018-02-22T22:02:34.904Z,2.62
2018-02-22T22:05:01.721Z,2.55
2018-02-22T22:07:28.733Z,2.03
2018-02-22T22:09:55.501Z,2.53
2018-02-22T22:12:22.269Z,3.37
2018-02-22T22:14:49.031Z,3.00
2018-02-22T22:17:15.837Z,2.85
2018-02-22T22:19:42.639Z,3.73
2018-02-22T22:22:09.396Z,3.70
2018-02-22T22:24:36.166Z,3.47
2018-02-22T22:27:02.958Z,4.30
2018-02-22T22:29:29.782Z,2.47
2018-02-22T22:31:57.018Z,3.00
2018-02-22T22:34:23.797Z,3.20
2018-02-22T22:36:51.258Z,2.22
2018-02-22T22:39:18.030Z,1.83
2018-02-22T22:41:44.839Z,2.42
2018-02-22T22:44:11.615Z,2.43
2018-02-22T22:46:38.398Z,2.72
2018-02-22T22:49:05.174Z,2.95
2018-02-22T22:51:31.931Z,4.10
2018-02-22T22:53:58.731Z,4.45
2018-02-22T22:56:25.488Z,2.45
2018-02-22T22:58:52.256Z,3.75
2018-02-22T23:01:19.009Z,2.93
2018-02-22T23:03:45.774Z,4.40
2018-02-22T23:06:12.570Z,3.60
2018-02-22T23:08:39.346Z,4.00
2018-02-22T23:11:06.114Z,3.90
2018-02-22T23:13:32.880Z,4.03
2018-02-22T23:15:59.646Z,4.68
2018-02-22T23:18:26.435Z,4.75
2018-02-22T23:20:53.522Z,3.97
2018-02-22T23:23:20.284Z,4.13
2018-02-22T23:25:47.044Z,4.37
2018-02-22T23:28:13.786Z,6.78
2018-02-22T23:30:40.588Z,1.30
